Time;durP1;ratioP1;P1;durP2;ratioP2;P2;SDS_P1;SDS_P2;PMS_P1;PMS_P2;Temp;Humidity;BMP_temperature;BMP_pressure;BME280_temperature;BME280_humidity;BME280_pressure;Samples;Min_cycle;Max_cycle;Signal;HPM_P1;HPM_P2
2021/06/11 00:00:31;;;;;;;9.30;8.45;;;;;;;;;;5092793;28;20039;-58
2021/06/11 00:02:57;;;;;;;9.52;8.63;;;;;;;;;;5093510;28;20024;-58
2021/06/11 00:05:24;;;;;;;8.60;7.72;;;;;;;;;;5093440;28;20032;-58
2021/06/11 00:07:50;;;;;;;9.85;8.38;;;;;;;;;;5094011;28;20020;-58
2021/06/11 00:10:18;;;;;;;8.40;7.60;;;;;;;;;;5094004;28;20527;-58
2021/06/11 00:12:44;;;;;;;9.63;7.97;;;;;;;;;;5093396;28;20028;-58
2021/06/11 00:15:11;;;;;;;9.25;8.40;;;;;;;;;;5093101;28;20020;-58
2021/06/11 00:17:37;;;;;;;11.18;8.50;;;;;;;;;;5092101;28;20183;-58
2021/06/11 00:20:07;;;;;;;9.35;8.05;;;;;;;;;;5093385;28;20051;-58
2021/06/11 00:22:33;;;;;;;8.60;7.70;;;;;;;;;;5093826;28;20122;-58
2021/06/11 00:24:59;;;;;;;8.93;8.02;;;;;;;;;;5093283;28;20020;-58
2021/06/11 00:27:25;;;;;;;8.48;7.63;;;;;;;;;;5093792;28;20107;-58
2021/06/11 00:29:51;;;;;;;10.40;8.02;;;;;;;;;;5092996;28;20114;-58
2021/06/11 00:32:17;;;;;;;9.43;8.07;;;;;;;;;;5092773;28;20078;-58
2021/06/11 00:34:43;;;;;;;10.60;8.40;;;;;;;;;;5092964;28;20397;-58
2021/06/11 00:37:09;;;;;;;8.60;7.70;;;;;;;;;;5092042;28;20369;-58
2021/06/11 00:39:35;;;;;;;8.90;8.00;;;;;;;;;;5093284;28;20432;-58
2021/06/11 00:42:03;;;;;;;9.27;8.32;;;;;;;;;;5093177;28;20074;-58
2021/06/11 00:44:30;;;;;;;9.00;7.65;;;;;;;;;;5093127;28;20020;-58
2021/06/11 00:46:56;;;;;;;8.13;7.25;;;;;;;;;;5095196;28;20028;-58
2021/06/11 00:49:22;;;;;;;10.38;7.63;;;;;;;;;;5096451;28;20540;-58
2021/06/11 00:51:48;;;;;;;9.07;8.23;;;;;;;;;;5097259;28;20060;-58
2021/06/11 00:54:14;;;;;;;9.60;8.60;;;;;;;;;;5096503;28;20027;-58
2021/06/11 00:56:40;;;;;;;9.68;8.68;;;;;;;;;;5096611;28;20028;-58
2021/06/11 00:59:07;;;;;;;10.60;8.35;;;;;;;;;;5095780;28;20346;-58
2021/06/11 01:01:33;;;;;;;11.00;8.85;;;;;;;;;;5097044;28;20067;-58
2021/06/11 01:03:59;;;;;;;9.68;8.13;;;;;;;;;;5095525;28;20473;-58
2021/06/11 01:06:26;;;;;;;9.32;8.27;;;;;;;;;;5095189;28;20427;-58
2021/06/11 01:08:52;;;;;;;9.85;8.90;;;;;;;;;;5096226;28;20040;-58
2021/06/11 01:11:18;;;;;;;9.05;7.63;;;;;;;;;;5096312;28;20419;-58
2021/06/11 01:13:44;;;;;;;9.38;8.48;;;;;;;;;;5096214;28;20028;-58
2021/06/11 01:16:10;;;;;;;9.23;8.38;;;;;;;;;;5096255;28;20028;-58
2021/06/11 01:18:37;;;;;;;13.98;8.88;;;;;;;;;;5096196;28;20024;-58
2021/06/11 01:21:03;;;;;;;9.63;8.05;;;;;;;;;;5096927;28;20032;-58
2021/06/11 01:23:48;;;;;;;9.60;8.50;;;;;;;;;;5096131;28;20031;-58
2021/06/11 01:26:20;;;;;;;9.80;8.80;;;;;;;;;;5096577;28;20465;-58
2021/06/11 01:28:46;;;;;;;9.40;8.38;;;;;;;;;;5095757;28;20466;-58
2021/06/11 01:31:12;;;;;;;9.57;8.20;;;;;;;;;;5096824;28;20051;-58
2021/06/11 01:33:39;;;;;;;10.27;8.90;;;;;;;;;;5096378;28;20468;-58
2021/06/11 01:36:10;;;;;;;10.73;9.70;;;;;;;;;;5096167;28;20369;-58
2021/06/11 01:38:37;;;;;;;;;;;;;;;;;;5096494;28;20454;-58
2021/06/11 01:41:04;;;;;;;10.43;8.52;;;;;;;;;;5096257;28;19958;-58
2021/06/11 01:43:33;;;;;;;11.63;10.38;;;;;;;;;;5095987;28;20043;-58
2021/06/11 01:45:59;;;;;;;11.45;10.30;;;;;;;;;;5095834;28;20059;-58
2021/06/11 01:48:25;;;;;;;10.00;8.93;;;;;;;;;;5095623;28;20024;-58
2021/06/11 01:50:52;;;;;;;11.00;8.85;;;;;;;;;;5094605;28;20038;-58
2021/06/11 01:53:19;;;;;;;9.30;8.40;;;;;;;;;;5095434;28;20077;-58
2021/06/11 01:55:46;;;;;;;12.25;9.45;;;;;;;;;;5095972;28;20017;-58
2021/06/11 01:58:14;;;;;;;10.10;8.90;;;;;;;;;;5095524;28;20031;-58
2021/06/11 02:00:40;;;;;;;10.65;9.55;;;;;;;;;;5095956;28;20031;-58
2021/06/11 02:03:07;;;;;;;10.68;9.68;;;;;;;;;;5095823;28;20024;-58
2021/06/11 02:05:33;;;;;;;10.68;9.60;;;;;;;;;;5095304;28;20016;-58
2021/06/11 02:08:00;;;;;;;11.45;10.35;;;;;;;;;;5095445;28;20095;-58
2021/06/11 02:10:26;;;;;;;10.30;8.52;;;;;;;;;;5095777;28;20044;-58
2021/06/11 02:12:53;;;;;;;10.23;9.15;;;;;;;;;;5095262;28;20028;-58
2021/06/11 02:15:20;;;;;;;11.85;10.50;;;;;;;;;;5095003;28;20016;-58
2021/06/11 02:17:47;;;;;;;9.55;8.45;;;;;;;;;;5095350;28;20024;-58
2021/06/11 02:20:15;;;;;;;12.43;10.80;;;;;;;;;;5094928;28;20032;-58
2021/06/11 02:22:42;;;;;;;10.38;9.38;;;;;;;;;;5094978;28;20118;-58
2021/06/11 02:25:09;;;;;;;14.43;10.15;;;;;;;;;;5094954;28;20028;-58
2021/06/11 02:27:36;;;;;;;10.38;9.35;;;;;;;;;;5094872;28;20454;-58
2021/06/11 02:30:04;;;;;;;10.20;8.60;;;;;;;;;;5095399;28;20411;-58
2021/06/11 02:32:34;;;;;;;10.00;9.00;;;;;;;;;;5095096;28;20028;-58
2021/06/11 02:35:00;;;;;;;11.77;10.68;;;;;;;;;;5095011;28;20028;-57
2021/06/11 02:37:27;;;;;;;11.65;10.55;;;;;;;;;;5094716;28;20059;-58
2021/06/11 02:39:53;;;;;;;11.32;10.13;;;;;;;;;;5094392;28;20028;-58
2021/06/11 02:42:19;;;;;;;11.88;10.68;;;;;;;;;;5094713;28;20462;-58
2021/06/11 02:44:50;;;;;;;12.10;10.88;;;;;;;;;;5094196;28;20530;-58
2021/06/11 02:47:24;;;;;;;12.77;10.32;;;;;;;;;;5095345;28;20024;-58
2021/06/11 02:50:00;;;;;;;12.63;10.75;;;;;;;;;;5094433;28;20066;-58
2021/06/11 02:52:28;;;;;;;12.07;10.70;;;;;;;;;;5094476;28;20031;-58
2021/06/11 02:54:56;;;;;;;10.98;9.88;;;;;;;;;;5094674;28;20095;-58
2021/06/11 02:57:41;;;;;;;12.27;11.05;;;;;;;;;;5094329;28;20024;-58
2021/06/11 03:00:09;;;;;;;11.25;10.10;;;;;;;;;;5094361;28;20051;-58
2021/06/11 03:02:44;;;;;;;11.63;10.52;;;;;;;;;;5093512;28;20039;-58
2021/06/11 03:05:15;;;;;;;14.68;12.43;;;;;;;;;;5094193;28;20373;-58
2021/06/11 03:07:42;;;;;;;12.30;11.05;;;;;;;;;;5094521;28;20052;-58
2021/06/11 03:10:09;;;;;;;12.43;11.23;;;;;;;;;;5093699;28;20047;-58
2021/06/11 03:12:38;;;;;;;13.43;11.77;;;;;;;;;;5094649;28;20111;-58
2021/06/11 03:15:05;;;;;;;13.23;11.43;;;;;;;;;;5092813;28;20051;-58
2021/06/11 03:17:32;;;;;;;13.32;12.02;;;;;;;;;;5094074;28;20157;-58
2021/06/11 03:20:02;;;;;;;11.80;10.40;;;;;;;;;;5094035;28;20356;-58
2021/06/11 03:22:40;;;;;;;11.98;10.85;;;;;;;;;;5093617;28;20470;-58
2021/06/11 03:25:16;;;;;;;13.13;11.77;;;;;;;;;;5092986;28;20457;-58
2021/06/11 03:27:48;;;;;;;12.80;11.60;;;;;;;;;;5094465;28;20024;-58
2021/06/11 03:30:15;;;;;;;14.05;12.63;;;;;;;;;;5093955;28;20024;-59
2021/06/11 03:32:46;;;;;;;13.60;10.80;;;;;;;;;;5094228;28;20066;-60
2021/06/11 03:35:18;;;;;;;13.30;11.95;;;;;;;;;;5094200;28;20449;-58
2021/06/11 03:37:46;;;;;;;12.68;11.38;;;;;;;;;;5094216;28;20043;-58
2021/06/11 03:40:17;;;;;;;12.55;11.18;;;;;;;;;;5093896;28;20027;-58
2021/06/11 03:42:43;;;;;;;;;;;;;;;;;;5094516;28;20036;-58
2021/06/11 03:45:09;;;;;;;11.35;10.25;;;;;;;;;;5093802;28;19991;-58
2021/06/11 03:47:36;;;;;;;12.38;11.00;;;;;;;;;;5093777;28;20024;-58
2021/06/11 03:50:03;;;;;;;15.82;11.38;;;;;;;;;;5093803;28;20031;-58
2021/06/11 03:52:31;;;;;;;12.10;10.95;;;;;;;;;;5093714;28;20035;-58
2021/06/11 03:55:07;;;;;;;14.98;11.77;;;;;;;;;;5093590;28;20028;-58
2021/06/11 03:57:33;;;;;;;12.02;10.88;;;;;;;;;;5094025;28;20153;-58
2021/06/11 04:00:00;;;;;;;13.55;12.25;;;;;;;;;;5093699;28;20029;-58
2021/06/11 04:02:26;;;;;;;14.77;10.80;;;;;;;;;;5092713;28;20055;-58
2021/06/11 04:04:53;;;;;;;11.80;10.60;;;;;;;;;;5093661;28;20021;-58
2021/06/11 04:07:23;;;;;;;12.13;10.70;;;;;;;;;;5093518;28;20486;-58
2021/06/11 04:09:51;;;;;;;10.85;9.73;;;;;;;;;;5093570;28;20048;-58
2021/06/11 04:12:25;;;;;;;11.77;9.05;;;;;;;;;;5093601;28;20027;-58
2021/06/11 04:14:52;;;;;;;10.50;9.40;;;;;;;;;;5093512;28;20413;-58
2021/06/11 04:17:22;;;;;;;12.63;10.32;;;;;;;;;;5093740;28;20016;-58
2021/06/11 04:19:50;;;;;;;9.95;8.98;;;;;;;;;;5094046;28;20497;-58
2021/06/11 04:22:23;;;;;;;12.88;10.82;;;;;;;;;;5097870;28;20028;-58
2021/06/11 04:24:49;;;;;;;10.32;9.32;;;;;;;;;;5097403;28;20481;-58
2021/06/11 04:27:15;;;;;;;9.98;8.98;;;;;;;;;;5097842;28;20024;-58
2021/06/11 04:29:42;;;;;;;10.43;9.52;;;;;;;;;;5096928;28;20024;-58
2021/06/11 04:32:08;;;;;;;9.40;8.52;;;;;;;;;;5097706;28;20081;-58
2021/06/11 04:34:34;;;;;;;11.02;8.50;;;;;;;;;;5097104;28;20429;-58
2021/06/11 04:37:01;;;;;;;10.02;9.02;;;;;;;;;;5097367;28;20016;-58
2021/06/11 04:39:27;;;;;;;8.80;7.90;;;;;;;;;;5097075;28;20027;-58
2021/06/11 04:41:52;;;;;;;10.77;8.18;;;;;;;;;;5097023;28;20039;-58
2021/06/11 04:44:19;;;;;;;8.70;7.28;;;;;;;;;;5096978;28;20024;-58
2021/06/11 04:46:45;;;;;;;9.25;8.32;;;;;;;;;;5095714;28;20488;-58
2021/06/11 04:49:11;;;;;;;9.02;7.60;;;;;;;;;;5096848;28;20020;-58
2021/06/11 04:51:37;;;;;;;12.13;9.00;;;;;;;;;;5097166;28;20031;-58
2021/06/11 04:54:03;;;;;;;9.35;7.78;;;;;;;;;;5096546;28;20114;-58
2021/06/11 04:56:29;;;;;;;9.55;7.88;;;;;;;;;;5096666;28;20028;-58
2021/06/11 04:58:56;;;;;;;10.45;8.55;;;;;;;;;;5096576;28;20066;-58
2021/06/11 05:01:22;;;;;;;9.77;8.13;;;;;;;;;;5095230;28;20036;-58
2021/06/11 05:03:48;;;;;;;10.07;7.68;;;;;;;;;;5094775;28;20024;-58
2021/06/11 05:06:14;;;;;;;7.43;6.68;;;;;;;;;;5096834;28;20323;-58
2021/06/11 05:08:42;;;;;;;7.00;6.30;;;;;;;;;;5096287;28;20408;-59
2021/06/11 05:11:08;;;;;;;7.95;6.85;;;;;;;;;;5096208;28;20024;-58
2021/06/11 05:13:34;;;;;;;7.82;7.03;;;;;;;;;;5096339;28;20119;-58
2021/06/11 05:16:02;;;;;;;7.68;6.97;;;;;;;;;;5095994;28;20028;-58
2021/06/11 05:18:31;;;;;;;7.82;6.60;;;;;;;;;;5096160;28;20020;-58
2021/06/11 05:20:58;;;;;;;8.77;7.85;;;;;;;;;;5096142;28;20065;-58
2021/06/11 05:23:24;;;;;;;10.10;7.43;;;;;;;;;;5096089;28;20028;-58
2021/06/11 05:25:50;;;;;;;7.57;6.00;;;;;;;;;;5096108;28;20025;-58
2021/06/11 05:28:18;;;;;;;7.82;7.13;;;;;;;;;;5096337;28;20024;-58
2021/06/11 05:30:45;;;;;;;11.00;7.75;;;;;;;;;;5095930;28;20028;-58
2021/06/11 05:33:11;;;;;;;8.82;7.85;;;;;;;;;;5095015;28;20024;-58
2021/06/11 05:35:39;;;;;;;8.48;6.55;;;;;;;;;;5095721;28;20021;-58
2021/06/11 05:38:05;;;;;;;8.40;7.57;;;;;;;;;;5094569;28;20048;-58
2021/06/11 05:40:35;;;;;;;8.20;7.40;;;;;;;;;;5096220;28;20362;-58
2021/06/11 05:43:01;;;;;;;9.02;7.90;;;;;;;;;;5095791;28;20024;-58
2021/06/11 05:45:28;;;;;;;8.63;7.72;;;;;;;;;;5095976;28;20068;-57
2021/06/11 05:47:54;;;;;;;9.27;7.53;;;;;;;;;;5095898;28;20107;-58
2021/06/11 05:50:20;;;;;;;9.52;7.35;;;;;;;;;;5096081;28;20059;-58
2021/06/11 05:52:46;;;;;;;9.05;8.20;;;;;;;;;;5096358;28;20096;-58
2021/06/11 05:55:14;;;;;;;9.82;8.85;;;;;;;;;;5095895;28;20024;-58
2021/06/11 05:57:40;;;;;;;8.57;7.68;;;;;;;;;;5094660;28;20116;-58
2021/06/11 06:00:07;;;;;;;10.10;8.68;;;;;;;;;;5095285;28;20020;-58
2021/06/11 06:02:33;;;;;;;14.77;9.95;;;;;;;;;;5096137;28;20030;-58
2021/06/11 06:04:59;;;;;;;10.90;8.65;;;;;;;;;;5095947;28;20043;-58
2021/06/11 06:07:25;;;;;;;8.68;7.88;;;;;;;;;;5095246;28;20024;-58
2021/06/11 06:09:51;;;;;;;10.93;9.82;;;;;;;;;;5094866;28;20123;-58
2021/06/11 06:12:17;;;;;;;8.88;7.97;;;;;;;;;;5095278;28;20039;-57
2021/06/11 06:14:46;;;;;;;10.80;9.00;;;;;;;;;;5095232;28;20034;-58
2021/06/11 06:17:13;;;;;;;9.23;7.78;;;;;;;;;;5095696;28;20016;-57
2021/06/11 06:19:38;;;;;;;9.00;8.10;;;;;;;;;;5095056;28;20074;-58
2021/06/11 06:22:04;;;;;;;9.85;8.18;;;;;;;;;;5094875;28;20427;-58
2021/06/11 06:24:30;;;;;;;8.15;7.35;;;;;;;;;;5094867;28;20032;-58
2021/06/11 06:26:56;;;;;;;9.80;8.82;;;;;;;;;;5094677;28;20024;-58
2021/06/11 06:29:23;;;;;;;9.40;8.15;;;;;;;;;;5094894;28;20427;-58
2021/06/11 06:31:49;;;;;;;8.77;7.70;;;;;;;;;;5095320;28;20060;-58
2021/06/11 06:34:15;;;;;;;9.68;7.70;;;;;;;;;;5094889;28;20476;-58
2021/06/11 06:36:41;;;;;;;9.25;8.35;;;;;;;;;;5094155;28;20103;-58
2021/06/11 06:39:08;;;;;;;10.13;7.50;;;;;;;;;;5094869;28;20082;-58
2021/06/11 06:41:34;;;;;;;9.30;8.40;;;;;;;;;;5094699;28;20489;-58
2021/06/11 06:44:01;;;;;;;8.98;8.10;;;;;;;;;;5095451;28;20032;-58
2021/06/11 06:46:27;;;;;;;10.70;8.40;;;;;;;;;;5094587;28;20161;-58
2021/06/11 06:48:53;;;;;;;10.52;9.43;;;;;;;;;;5094923;28;20036;-58
2021/06/11 06:51:20;;;;;;;8.25;7.45;;;;;;;;;;5095098;28;20474;-58
2021/06/11 06:53:47;;;;;;;8.70;7.90;;;;;;;;;;5094281;28;20030;-58
2021/06/11 06:56:18;;;;;;;7.97;7.28;;;;;;;;;;5094468;28;20025;-58
2021/06/11 06:58:44;;;;;;;8.27;7.38;;;;;;;;;;5094396;28;20081;-58
2021/06/11 07:01:09;;;;;;;9.10;8.13;;;;;;;;;;5094286;28;20040;-58
2021/06/11 07:03:36;;;;;;;7.90;7.20;;;;;;;;;;5093832;28;20109;-58
2021/06/11 07:06:02;;;;;;;7.45;6.60;;;;;;;;;;5094234;28;20027;-58
2021/06/11 07:08:31;;;;;;;8.82;7.30;;;;;;;;;;5093478;28;20407;-58
2021/06/11 07:10:58;;;;;;;9.38;7.35;;;;;;;;;;5094583;28;20425;-58
2021/06/11 07:13:25;;;;;;;12.32;7.60;;;;;;;;;;5094118;28;20016;-58
2021/06/11 07:15:52;;;;;;;10.05;7.70;;;;;;;;;;5094158;28;20043;-58
2021/06/11 07:18:18;;;;;;;6.82;6.22;;;;;;;;;;5093762;28;20028;-58
2021/06/11 07:20:44;;;;;;;8.60;7.50;;;;;;;;;;5094282;28;20032;-58
2021/06/11 07:23:10;;;;;;;7.03;6.25;;;;;;;;;;5094617;28;20518;-58
2021/06/11 07:25:36;;;;;;;7.55;6.85;;;;;;;;;;5093814;28;20095;-58
2021/06/11 07:28:02;;;;;;;8.90;7.10;;;;;;;;;;5094106;28;20020;-58
2021/06/11 07:30:28;;;;;;;7.30;6.60;;;;;;;;;;5093898;28;20077;-58
2021/06/11 07:32:54;;;;;;;10.27;7.07;;;;;;;;;;5094267;28;20036;-58
2021/06/11 07:35:20;;;;;;;6.60;5.95;;;;;;;;;;5092792;28;20030;-58
2021/06/11 07:37:46;;;;;;;7.82;7.07;;;;;;;;;;5093954;28;20036;-58
2021/06/11 07:40:13;;;;;;;9.52;7.20;;;;;;;;;;5093953;28;20059;-58
2021/06/11 07:42:41;;;;;;;7.22;6.53;;;;;;;;;;5094621;28;20033;-58
2021/06/11 07:45:08;;;;;;;9.02;6.95;;;;;;;;;;5093887;28;20026;-58
2021/06/11 07:47:35;;;;;;;9.68;7.47;;;;;;;;;;5092442;28;20020;-58
2021/06/11 07:50:04;;;;;;;8.20;7.30;;;;;;;;;;5093755;28;20020;-58
2021/06/11 07:52:31;;;;;;;8.55;7.63;;;;;;;;;;5093515;28;20031;-58
2021/06/11 07:54:57;;;;;;;7.97;7.18;;;;;;;;;;5094243;28;20027;-58
2021/06/11 07:57:23;;;;;;;9.60;8.00;;;;;;;;;;5098671;28;20024;-59
2021/06/11 07:59:49;;;;;;;8.52;7.68;;;;;;;;;;5097856;28;20016;-59
2021/06/11 08:02:16;;;;;;;7.95;6.97;;;;;;;;;;5097734;28;20530;-59
2021/06/11 08:04:42;;;;;;;9.88;7.03;;;;;;;;;;5097944;28;20480;-59
2021/06/11 08:07:08;;;;;;;7.40;6.68;;;;;;;;;;5098297;28;20032;-59
2021/06/11 08:09:34;;;;;;;7.65;6.57;;;;;;;;;;5097680;28;20121;-59
2021/06/11 08:12:00;;;;;;;9.27;7.60;;;;;;;;;;5097673;28;20041;-59
2021/06/11 08:14:26;;;;;;;8.73;7.93;;;;;;;;;;5097656;28;20128;-58
2021/06/11 08:16:52;;;;;;;7.43;6.68;;;;;;;;;;5097556;28;20024;-58
2021/06/11 08:19:18;;;;;;;7.38;6.68;;;;;;;;;;5097494;28;20028;-58
2021/06/11 08:21:44;;;;;;;7.43;6.72;;;;;;;;;;5097844;28;20028;-58
2021/06/11 08:24:10;;;;;;;8.73;6.25;;;;;;;;;;5096382;28;20048;-58
2021/06/11 08:26:36;;;;;;;7.30;6.65;;;;;;;;;;5097669;28;20024;-58
2021/06/11 08:29:03;;;;;;;7.75;6.95;;;;;;;;;;5097292;28;20020;-58
2021/06/11 08:31:29;;;;;;;7.15;6.45;;;;;;;;;;5097868;28;20028;-58
2021/06/11 08:33:55;;;;;;;7.40;6.70;;;;;;;;;;5097274;28;20104;-58
2021/06/11 08:36:21;;;;;;;8.10;6.53;;;;;;;;;;5097219;28;20020;-59
2021/06/11 08:38:47;;;;;;;7.25;6.47;;;;;;;;;;5097108;28;20021;-59
2021/06/11 08:41:17;;;;;;;7.50;6.70;;;;;;;;;;5096988;28;20116;-59
2021/06/11 08:43:43;;;;;;;8.18;6.65;;;;;;;;;;5096969;28;20079;-59
2021/06/11 08:46:10;;;;;;;8.18;7.38;;;;;;;;;;5096923;28;20453;-59
2021/06/11 08:48:36;;;;;;;10.35;6.70;;;;;;;;;;5097231;28;20035;-59
2021/06/11 08:51:02;;;;;;;8.57;7.65;;;;;;;;;;5097490;28;20098;-59
2021/06/11 08:53:28;;;;;;;9.98;7.60;;;;;;;;;;5097065;28;20081;-59
2021/06/11 08:55:54;;;;;;;9.27;7.63;;;;;;;;;;5096839;28;20020;-59
2021/06/11 08:58:20;;;;;;;8.20;7.35;;;;;;;;;;5096645;28;20024;-59
2021/06/11 09:00:46;;;;;;;8.55;7.68;;;;;;;;;;5096895;28;20050;-60
2021/06/11 09:03:17;;;;;;;9.68;8.70;;;;;;;;;;5096329;28;20024;-59
2021/06/11 09:05:47;;;;;;;8.93;7.43;;;;;;;;;;5096187;28;20059;-60
2021/06/11 09:08:17;;;;;;;8.23;7.43;;;;;;;;;;5095657;28;20111;-60
2021/06/11 09:10:44;;;;;;;10.52;8.15;;;;;;;;;;5097071;28;20115;-60
2021/06/11 09:13:10;;;;;;;6.53;5.93;;;;;;;;;;5096501;28;20020;-59
2021/06/11 09:15:36;;;;;;;9.05;8.15;;;;;;;;;;5096422;28;20024;-59
2021/06/11 09:18:02;;;;;;;7.72;7.03;;;;;;;;;;5096377;28;20020;-59
2021/06/11 09:20:28;;;;;;;8.00;7.20;;;;;;;;;;5096397;28;20023;-59
2021/06/11 09:22:59;;;;;;;8.52;7.63;;;;;;;;;;5096196;28;20028;-59
2021/06/11 09:25:27;;;;;;;7.75;7.00;;;;;;;;;;5096123;28;20119;-59
2021/06/11 09:27:54;;;;;;;6.55;5.95;;;;;;;;;;5096921;28;20466;-59
2021/06/11 09:30:20;;;;;;;8.63;7.00;;;;;;;;;;5095814;28;20462;-60
2021/06/11 09:32:56;;;;;;;8.57;7.70;;;;;;;;;;5096692;28;20335;-59
2021/06/11 09:35:32;;;;;;;8.50;7.70;;;;;;;;;;5095965;28;20031;-60
2021/06/11 09:38:08;;;;;;;11.98;7.28;;;;;;;;;;5095914;28;20024;-59
2021/06/11 09:40:35;;;;;;;8.27;7.47;;;;;;;;;;5096268;28;20024;-60
2021/06/11 09:43:04;;;;;;;7.63;6.88;;;;;;;;;;5095790;28;20040;-60
2021/06/11 09:45:30;;;;;;;8.63;7.50;;;;;;;;;;5095796;28;20035;-60
2021/06/11 09:47:56;;;;;;;7.53;6.82;;;;;;;;;;5095414;28;20438;-60
2021/06/11 09:50:33;;;;;;;9.93;8.98;;;;;;;;;;5095692;28;20073;-60
2021/06/11 09:53:01;;;;;;;9.05;8.15;;;;;;;;;;5096034;28;20028;-60
2021/06/11 09:55:40;;;;;;;8.00;7.20;;;;;;;;;;5095602;28;20024;-60
2021/06/11 09:58:14;;;;;;;8.20;7.47;;;;;;;;;;5095459;28;20032;-60
2021/06/11 10:00:42;;;;;;;9.02;8.18;;;;;;;;;;5095470;28;20098;-60
2021/06/11 10:03:12;;;;;;;7.97;7.28;;;;;;;;;;5095479;28;20103;-60
2021/06/11 10:05:39;;;;;;;8.02;7.25;;;;;;;;;;5095260;28;20024;-60
2021/06/11 10:08:06;;;;;;;8.23;7.40;;;;;;;;;;5095133;28;20028;-60
2021/06/11 10:10:32;;;;;;;8.23;7.25;;;;;;;;;;5095633;28;20113;-60
2021/06/11 10:12:58;;;;;;;9.07;8.13;;;;;;;;;;5095365;28;20102;-60
2021/06/11 10:15:24;;;;;;;6.75;5.85;;;;;;;;;;5095269;28;20103;-60
2021/06/11 10:17:51;;;;;;;7.70;6.97;;;;;;;;;;5094916;28;20493;-60
2021/06/11 10:20:16;;;;;;;8.13;7.32;;;;;;;;;;5095198;28;20024;-60
2021/06/11 10:22:42;;;;;;;9.10;8.05;;;;;;;;;;5095262;28;20055;-60
2021/06/11 10:25:12;;;;;;;8.50;7.70;;;;;;;;;;5095130;28;20373;-60
2021/06/11 10:27:38;;;;;;;8.15;7.40;;;;;;;;;;5094906;28;20032;-60
2021/06/11 10:30:05;;;;;;;7.95;7.10;;;;;;;;;;5095272;28;20020;-60
2021/06/11 10:32:31;;;;;;;7.75;7.05;;;;;;;;;;5095499;28;20158;-60
2021/06/11 10:34:57;;;;;;;8.70;7.90;;;;;;;;;;5095412;28;20032;-60
2021/06/11 10:37:45;;;;;;;8.35;7.55;;;;;;;;;;5094768;28;20020;-60
2021/06/11 10:40:17;;;;;;;8.00;7.20;;;;;;;;;;5095105;28;20020;-60
2021/06/11 10:42:43;;;;;;;7.93;7.20;;;;;;;;;;5094689;28;20378;-60
2021/06/11 10:45:14;;;;;;;7.82;7.00;;;;;;;;;;5094743;28;20473;-60
2021/06/11 10:47:53;;;;;;;7.05;6.45;;;;;;;;;;5095450;28;20024;-60
2021/06/11 10:50:31;;;;;;;7.93;7.00;;;;;;;;;;5095909;28;20028;-60
2021/06/11 10:53:07;;;;;;;7.53;6.80;;;;;;;;;;5094818;28;20024;-60
2021/06/11 10:55:37;;;;;;;8.25;7.45;;;;;;;;;;5094490;28;20024;-60
2021/06/11 10:58:03;;;;;;;8.87;8.07;;;;;;;;;;5094705;28;20089;-60
2021/06/11 11:00:37;;;;;;;7.07;6.38;;;;;;;;;;5094437;28;20024;-60
2021/06/11 11:03:04;;;;;;;7.18;6.30;;;;;;;;;;5094650;28;20384;-60
2021/06/11 11:05:34;;;;;;;6.68;5.88;;;;;;;;;;5094342;28;20080;-60
2021/06/11 11:08:01;;;;;;;6.68;6.07;;;;;;;;;;5094127;28;20532;-61
2021/06/11 11:10:44;;;;;;;7.55;6.75;;;;;;;;;;5094895;28;20071;-60
2021/06/11 11:13:11;;;;;;;7.07;6.38;;;;;;;;;;5094413;28;20073;-60
2021/06/11 11:15:39;;;;;;;7.63;6.93;;;;;;;;;;5094999;28;20024;-60
2021/06/11 11:18:06;;;;;;;8.57;7.78;;;;;;;;;;5094469;28;20436;-60
2021/06/11 11:20:34;;;;;;;8.02;6.65;;;;;;;;;;5094912;28;20051;-60
2021/06/11 11:23:01;;;;;;;8.43;7.63;;;;;;;;;;5093974;28;20470;-60
2021/06/11 11:25:28;;;;;;;7.63;6.95;;;;;;;;;;5094046;28;20024;-60
2021/06/11 11:27:55;;;;;;;9.05;8.02;;;;;;;;;;5094334;28;20056;-60
2021/06/11 11:30:24;;;;;;;8.60;7.80;;;;;;;;;;5093786;28;20070;-60
2021/06/11 11:32:51;;;;;;;8.65;7.32;;;;;;;;;;5094449;28;20107;-60
2021/06/11 11:35:18;;;;;;;7.80;7.10;;;;;;;;;;5093888;28;20351;-60
2021/06/11 11:37:45;;;;;;;9.55;6.13;;;;;;;;;;5094363;28;20077;-60
2021/06/11 11:40:11;;;;;;;6.32;5.68;;;;;;;;;;5094054;28;20035;-60
2021/06/11 11:42:37;;;;;;;7.88;6.93;;;;;;;;;;5093734;28;20490;-60
2021/06/11 11:45:04;;;;;;;8.07;7.32;;;;;;;;;;5094575;28;20020;-60
2021/06/11 11:47:30;;;;;;;7.68;6.97;;;;;;;;;;5094368;28;20021;-60
2021/06/11 11:49:56;;;;;;;6.22;5.63;;;;;;;;;;5093809;28;20020;-60
2021/06/11 11:52:22;;;;;;;8.60;6.72;;;;;;;;;;5093876;28;20042;-60
2021/06/11 11:54:49;;;;;;;6.78;6.13;;;;;;;;;;5093910;28;20095;-60
2021/06/11 11:57:15;;;;;;;8.75;6.57;;;;;;;;;;5093418;28;20102;-60
2021/06/11 11:59:40;;;;;;;7.70;6.88;;;;;;;;;;5093668;28;20020;-60
2021/06/11 12:02:10;;;;;;;6.65;6.00;;;;;;;;;;5094135;28;20043;-60
2021/06/11 12:04:35;;;;;;;7.90;7.13;;;;;;;;;;5093657;28;20020;-60
2021/06/11 12:07:02;;;;;;;7.72;7.00;;;;;;;;;;5093548;28;20024;-60
2021/06/11 12:09:29;;;;;;;8.10;7.30;;;;;;;;;;5093574;28;20528;-60
2021/06/11 12:11:55;;;;;;;9.02;8.15;;;;;;;;;;5094107;28;20036;-60
2021/06/11 12:14:21;;;;;;;7.82;7.05;;;;;;;;;;5093606;28;20031;-60
2021/06/11 12:16:47;;;;;;;8.70;7.97;;;;;;;;;;5093870;28;20048;-60
2021/06/11 12:19:13;;;;;;;9.68;8.73;;;;;;;;;;5093486;28;20078;-60
2021/06/11 12:21:39;;;;;;;8.02;7.22;;;;;;;;;;5094080;28;20399;-60
2021/06/11 12:24:05;;;;;;;7.90;7.20;;;;;;;;;;5093778;28;20081;-60
2021/06/11 12:26:31;;;;;;;8.38;7.57;;;;;;;;;;5093763;28;20017;-60
2021/06/11 12:28:59;;;;;;;9.05;8.18;;;;;;;;;;5093488;28;20107;-60
2021/06/11 12:31:25;;;;;;;7.78;6.97;;;;;;;;;;5093449;28;20504;-60
2021/06/11 12:33:51;;;;;;;7.05;6.35;;;;;;;;;;5093318;28;20028;-60
2021/06/11 12:36:17;;;;;;;7.35;6.63;;;;;;;;;;5093820;28;20027;-60
2021/06/11 12:38:43;;;;;;;7.70;7.03;;;;;;;;;;5093385;28;20104;-60
2021/06/11 12:41:10;;;;;;;7.18;6.43;;;;;;;;;;5093963;28;20040;-60
2021/06/11 12:46:24;;;;;;;6.28;5.38;;;;;;;;;;5097149;28;20086;-60
2021/06/11 12:48:51;;;;;;;7.15;6.18;;;;;;;;;;5096927;28;20362;-60
2021/06/11 12:51:18;;;;;;;7.30;6.70;;;;;;;;;;5097505;28;20367;-60
2021/06/11 12:53:44;;;;;;;7.85;6.68;;;;;;;;;;5096731;28;20024;-60
2021/06/11 12:56:10;;;;;;;6.32;5.72;;;;;;;;;;5096838;28;20563;-60
2021/06/11 12:58:36;;;;;;;6.22;5.63;;;;;;;;;;5096785;28;20017;-60
2021/06/11 13:01:02;;;;;;;6.78;6.18;;;;;;;;;;5096950;28;20362;-60
2021/06/11 13:03:28;;;;;;;7.13;6.43;;;;;;;;;;5096664;28;20026;-60
2021/06/11 13:05:54;;;;;;;7.70;6.55;;;;;;;;;;5096572;28;20378;-60
2021/06/11 13:08:20;;;;;;;5.75;5.20;;;;;;;;;;5096391;28;20023;-60
2021/06/11 13:10:46;;;;;;;6.07;5.47;;;;;;;;;;5096547;28;20036;-60
2021/06/11 13:13:12;;;;;;;5.47;4.97;;;;;;;;;;5096812;28;20024;-60
2021/06/11 13:15:38;;;;;;;6.25;5.60;;;;;;;;;;5095955;28;20548;-60
2021/06/11 13:18:05;;;;;;;6.13;5.22;;;;;;;;;;5096163;28;20179;-60
2021/06/11 13:20:32;;;;;;;6.28;5.68;;;;;;;;;;5096261;28;20103;-60
2021/06/11 13:22:58;;;;;;;5.70;5.13;;;;;;;;;;5096279;28;20036;-60
2021/06/11 13:25:24;;;;;;;5.80;5.25;;;;;;;;;;5096180;28;20378;-60
2021/06/11 13:27:50;;;;;;;5.35;4.75;;;;;;;;;;5096962;28;20028;-60
2021/06/11 13:30:16;;;;;;;4.70;4.30;;;;;;;;;;5096153;28;20381;-60
2021/06/11 13:32:42;;;;;;;6.85;5.45;;;;;;;;;;5096419;28;20377;-60
2021/06/11 13:35:08;;;;;;;5.53;4.97;;;;;;;;;;5096066;28;20045;-60
2021/06/11 13:37:34;;;;;;;4.70;4.13;;;;;;;;;;5095986;28;20137;-60
2021/06/11 13:40:00;;;;;;;5.22;4.72;;;;;;;;;;5096011;28;20474;-60
2021/06/11 13:42:26;;;;;;;5.88;4.97;;;;;;;;;;5096189;28;20109;-60
2021/06/11 13:44:52;;;;;;;5.03;4.50;;;;;;;;;;5095863;28;20119;-60
2021/06/11 13:47:18;;;;;;;4.35;3.95;;;;;;;;;;5095837;28;20024;-60
2021/06/11 13:49:44;;;;;;;6.60;4.93;;;;;;;;;;5095695;28;20469;-60
2021/06/11 13:52:10;;;;;;;6.60;4.60;;;;;;;;;;5096581;28;20054;-60
2021/06/11 13:54:36;;;;;;;4.90;4.45;;;;;;;;;;5094886;28;20420;-60
2021/06/11 13:57:03;;;;;;;9.30;5.05;;;;;;;;;;5096433;28;20024;-60
2021/06/11 13:59:29;;;;;;;4.55;4.05;;;;;;;;;;5095657;28;20024;-60
2021/06/11 14:01:56;;;;;;;4.93;4.43;;;;;;;;;;5096277;28;20400;-60
2021/06/11 14:04:22;;;;;;;4.97;4.47;;;;;;;;;;5095550;28;20020;-60
2021/06/11 14:06:48;;;;;;;3.97;3.55;;;;;;;;;;5095449;28;20131;-60
2021/06/11 14:09:14;;;;;;;5.28;4.25;;;;;;;;;;5095243;28;20048;-60
2021/06/11 14:11:41;;;;;;;5.22;3.65;;;;;;;;;;5095341;28;20024;-60
2021/06/11 14:14:08;;;;;;;5.18;4.68;;;;;;;;;;5095088;28;20024;-60
2021/06/11 14:16:34;;;;;;;9.80;5.13;;;;;;;;;;5095252;28;20024;-60
2021/06/11 14:19:02;;;;;;;4.78;4.28;;;;;;;;;;5095501;28;20027;-60
2021/06/11 14:21:28;;;;;;;5.22;4.60;;;;;;;;;;5095384;28;20115;-60
2021/06/11 14:23:54;;;;;;;7.30;4.65;;;;;;;;;;5094136;28;20027;-60
2021/06/11 14:26:20;;;;;;;5.55;3.95;;;;;;;;;;5094752;28;20020;-60
2021/06/11 14:28:46;;;;;;;4.95;4.53;;;;;;;;;;5094899;28;20024;-60
2021/06/11 14:31:12;;;;;;;5.45;4.50;;;;;;;;;;5095195;28;20081;-60
2021/06/11 14:33:39;;;;;;;5.28;4.68;;;;;;;;;;5094916;28;20035;-60
2021/06/11 14:36:06;;;;;;;4.55;4.15;;;;;;;;;;5094571;28;20538;-60
2021/06/11 14:38:32;;;;;;;4.25;3.85;;;;;;;;;;5094396;28;20032;-60
2021/06/11 14:40:59;;;;;;;5.30;4.80;;;;;;;;;;5094341;28;20028;-60